createdAt,value
2022-07-30T00:01:15.220Z,2.25
2022-07-30T00:03:41.822Z,2.05
2022-07-30T00:06:08.432Z,2.17
2022-07-30T00:08:37.043Z,2.42
2022-07-30T00:11:03.745Z,1.95
2022-07-30T00:13:30.350Z,1.80
2022-07-30T00:15:56.939Z,2.22
2022-07-30T00:18:23.415Z,2.35
2022-07-30T00:20:49.865Z,2.15
2022-07-30T00:23:18.073Z,1.95
2022-07-30T00:25:44.561Z,2.00
2022-07-30T00:28:11.051Z,1.90
2022-07-30T00:30:38.810Z,2.00
2022-07-30T00:33:05.394Z,2.03
2022-07-30T00:35:35.130Z,1.73
2022-07-30T00:38:01.675Z,1.65
2022-07-30T00:40:28.966Z,1.80
2022-07-30T00:42:55.651Z,1.88
2022-07-30T00:45:22.363Z,1.60
2022-07-30T00:47:49.289Z,1.88
2022-07-30T00:50:16.342Z,2.17
2022-07-30T00:52:43.639Z,2.05
2022-07-30T00:55:13.347Z,1.80
2022-07-30T00:57:40.291Z,1.88
2022-07-30T01:00:09.931Z,2.15
2022-07-30T01:02:36.619Z,2.05
2022-07-30T01:05:04.080Z,1.33
2022-07-30T01:07:30.635Z,1.85
2022-07-30T01:09:57.121Z,1.92
2022-07-30T01:12:25.958Z,2.20
2022-07-30T01:14:53.046Z,2.17
2022-07-30T01:17:20.233Z,1.67
2022-07-30T01:19:56.006Z,1.42
2022-07-30T01:22:30.901Z,1.90
2022-07-30T01:25:09.786Z,1.85
2022-07-30T01:27:58.120Z,2.03
2022-07-30T01:30:28.283Z,1.98
2022-07-30T01:32:56.328Z,1.73
2022-07-30T01:35:25.835Z,1.92
2022-07-30T01:37:54.431Z,2.15
2022-07-30T01:40:23.428Z,2.15
2022-07-30T01:42:57.143Z,2.13
2022-07-30T01:45:25.515Z,1.98
2022-07-30T01:47:54.556Z,2.30
2022-07-30T01:50:22.653Z,2.00
2022-07-30T01:52:52.830Z,2.45
2022-07-30T01:55:26.848Z,1.50
2022-07-30T01:57:55.096Z,2.33
2022-07-30T02:00:24.577Z,2.25
2022-07-30T02:02:51.133Z,1.88
2022-07-30T02:05:17.920Z,2.25
2022-07-30T02:07:47.082Z,2.40
2022-07-30T02:10:19.153Z,2.47
2022-07-30T02:12:52.235Z,2.20
2022-07-30T02:15:37.462Z,2.60
2022-07-30T02:18:16.850Z,2.60
2022-07-30T02:20:49.447Z,2.92
2022-07-30T02:23:18.239Z,2.72
2022-07-30T02:25:49.043Z,2.70
2022-07-30T02:28:18.522Z,2.42
2022-07-30T02:30:51.279Z,2.60
2022-07-30T02:33:23.716Z,2.53
2022-07-30T02:35:54.699Z,2.75
2022-07-30T02:38:22.021Z,2.90
2022-07-30T02:40:50.130Z,2.40
2022-07-30T02:43:18.281Z,2.78
2022-07-30T02:45:48.021Z,2.38
2022-07-30T02:48:35.109Z,3.08
2022-07-30T02:51:04.675Z,2.42
2022-07-30T02:53:32.828Z,2.63
2022-07-30T02:56:01.128Z,3.25
2022-07-30T02:58:29.226Z,2.80
2022-07-30T03:00:57.289Z,2.83
2022-07-30T03:03:29.097Z,2.80
2022-07-30T03:05:57.424Z,3.10
2022-07-30T03:08:26.227Z,2.88
2022-07-30T03:10:55.938Z,2.90
2022-07-30T03:13:24.688Z,2.95
2022-07-30T03:15:53.797Z,2.95
2022-07-30T03:18:22.079Z,2.95
2022-07-30T03:20:51.691Z,3.60
2022-07-30T03:23:19.787Z,3.20
2022-07-30T03:25:54.492Z,3.55
2022-07-30T03:28:23.483Z,4.18
2022-07-30T03:30:51.765Z,3.60
2022-07-30T03:33:19.958Z,3.30
2022-07-30T03:35:48.869Z,4.30
2022-07-30T03:38:15.674Z,3.60
2022-07-30T03:40:44.129Z,4.45
2022-07-30T03:43:33.662Z,4.53
2022-07-30T03:46:01.000Z,4.63
2022-07-30T03:48:31.269Z,4.80
2022-07-30T03:50:58.955Z,4.43
2022-07-30T03:53:27.634Z,5.70
2022-07-30T03:56:14.236Z,4.57
2022-07-30T03:58:52.874Z,4.07
2022-07-30T04:01:19.548Z,4.22
2022-07-30T04:03:46.443Z,4.20
2022-07-30T04:06:13.099Z,4.35
2022-07-30T04:08:39.629Z,3.85
2022-07-30T04:11:06.277Z,4.45
2022-07-30T04:13:58.983Z,4.20
2022-07-30T04:16:53.241Z,4.40
2022-07-30T04:19:28.304Z,5.22
2022-07-30T04:21:59.944Z,5.68
2022-07-30T04:24:28.404Z,6.18
2022-07-30T04:26:59.542Z,5.97
2022-07-30T04:29:27.159Z,5.95
2022-07-30T04:31:55.039Z,6.13
2022-07-30T04:34:48.197Z,5.97
2022-07-30T04:37:17.517Z,7.03
2022-07-30T04:39:44.657Z,6.32
2022-07-30T04:42:11.601Z,6.80
2022-07-30T04:44:38.752Z,6.65
2022-07-30T04:47:24.909Z,5.93
2022-07-30T04:50:12.985Z,5.53
2022-07-30T04:52:41.745Z,5.32
2022-07-30T04:55:11.065Z,5.20
2022-07-30T04:57:40.270Z,5.80
2022-07-30T05:00:07.896Z,7.25
2022-07-30T05:02:40.027Z,5.95
2022-07-30T05:05:08.608Z,4.93
2022-07-30T05:07:37.792Z,5.97
2022-07-30T05:10:06.566Z,5.13
2022-07-30T05:12:35.052Z,5.88
2022-07-30T05:15:01.569Z,4.93
2022-07-30T05:17:28.119Z,5.75
2022-07-30T05:19:54.626Z,5.22
2022-07-30T05:22:21.488Z,5.40
2022-07-30T05:24:48.292Z,5.22
2022-07-30T05:27:14.842Z,5.30
2022-07-30T05:29:41.398Z,5.07
2022-07-30T05:32:12.879Z,4.45
2022-07-30T05:34:39.576Z,4.70
2022-07-30T05:37:06.732Z,5.00
2022-07-30T05:39:36.713Z,5.32
2022-07-30T05:42:41.934Z,4.72
2022-07-30T05:45:09.460Z,5.22
2022-07-30T05:47:36.528Z,5.10
2022-07-30T05:50:05.303Z,4.60
2022-07-30T05:52:32.671Z,5.65
2022-07-30T05:55:07.609Z,4.82
2022-07-30T05:57:50.780Z,4.10
2022-07-30T06:00:17.790Z,4.55
2022-07-30T06:02:44.556Z,4.07
2022-07-30T06:05:26.077Z,4.15
2022-07-30T06:07:55.597Z,4.28
2022-07-30T06:10:23.113Z,4.28
2022-07-30T06:12:49.948Z,4.25
2022-07-30T06:15:25.651Z,4.50
2022-07-30T06:18:01.575Z,4.57
2022-07-30T06:21:01.400Z,4.38
2022-07-30T06:23:46.920Z,4.10
2022-07-30T06:26:21.819Z,4.20
2022-07-30T06:28:48.309Z,4.25
2022-07-30T06:31:19.981Z,4.18
2022-07-30T06:33:46.620Z,4.00
2022-07-30T06:36:14.466Z,4.10
2022-07-30T06:39:02.506Z,4.10
2022-07-30T06:42:04.527Z,4.07
2022-07-30T06:44:51.287Z,4.30
2022-07-30T06:47:29.155Z,4.47
2022-07-30T06:49:57.659Z,5.50
2022-07-30T06:52:25.889Z,4.53
2022-07-30T06:54:53.282Z,4.25
2022-07-30T06:57:26.437Z,4.57
2022-07-30T06:59:56.454Z,3.95
2022-07-30T07:02:42.584Z,4.25
2022-07-30T07:05:11.838Z,4.35
2022-07-30T07:07:43.299Z,4.30
2022-07-30T07:10:17.695Z,4.90
2022-07-30T07:12:52.232Z,5.45
2022-07-30T07:15:21.855Z,4.40
2022-07-30T07:17:49.286Z,3.75
2022-07-30T07:20:26.917Z,4.28
2022-07-30T07:23:01.666Z,4.38
2022-07-30T07:25:33.352Z,4.20
2022-07-30T07:28:11.809Z,4.30
2022-07-30T07:30:44.123Z,4.45
2022-07-30T07:33:12.244Z,4.55
2022-07-30T07:35:49.054Z,3.85
2022-07-30T07:38:20.832Z,4.32
2022-07-30T07:40:48.914Z,3.80
2022-07-30T07:43:15.982Z,4.25
2022-07-30T07:45:43.232Z,3.97
2022-07-30T07:48:10.031Z,4.00
2022-07-30T07:50:48.517Z,4.10
2022-07-30T07:53:22.026Z,3.90
2022-07-30T07:55:49.003Z,3.92
2022-07-30T07:58:17.543Z,3.38
2022-07-30T08:00:54.896Z,3.83
2022-07-30T08:03:25.711Z,3.75
2022-07-30T08:06:02.681Z,3.55
2022-07-30T08:09:07.768Z,3.88
2022-07-30T08:11:53.086Z,3.65
2022-07-30T08:14:38.035Z,3.97
2022-07-30T08:17:30.476Z,3.40
2022-07-30T08:20:18.606Z,3.90
2022-07-30T08:22:46.185Z,3.72
2022-07-30T08:25:24.159Z,3.55
2022-07-30T08:27:51.581Z,3.45
2022-07-30T08:30:20.233Z,3.65
2022-07-30T08:32:46.852Z,3.67
2022-07-30T08:35:13.418Z,3.78
2022-07-30T08:37:41.109Z,3.40
2022-07-30T08:40:09.083Z,3.83
2022-07-30T08:42:42.767Z,3.90
2022-07-30T08:45:12.324Z,3.60
2022-07-30T08:47:41.244Z,3.60
2022-07-30T08:50:11.584Z,2.97
2022-07-30T08:53:03.823Z,2.70
2022-07-30T08:55:31.493Z,2.50
2022-07-30T08:57:58.729Z,2.70
2022-07-30T09:00:26.242Z,2.30
2022-07-30T09:02:52.819Z,2.17
2022-07-30T09:05:19.362Z,2.20
2022-07-30T09:07:46.168Z,2.08
2022-07-30T09:10:21.170Z,1.90
2022-07-30T09:12:47.748Z,2.28
2022-07-30T09:15:20.188Z,1.92
2022-07-30T09:17:57.124Z,1.77
2022-07-30T09:20:30.281Z,2.05
2022-07-30T09:23:03.793Z,2.00
2022-07-30T09:25:49.787Z,2.17
2022-07-30T09:28:34.981Z,1.77
2022-07-30T09:31:13.881Z,2.03
2022-07-30T09:33:59.569Z,2.00
2022-07-30T09:37:04.569Z,2.00
2022-07-30T09:39:59.543Z,1.88
2022-07-30T09:43:25.945Z,1.60
2022-07-30T09:46:01.570Z,1.60
2022-07-30T09:48:28.547Z,1.70
2022-07-30T09:50:57.365Z,1.65
2022-07-30T09:53:24.745Z,1.70
2022-07-30T09:55:51.326Z,1.45
2022-07-30T09:58:27.080Z,1.60
2022-07-30T10:01:01.555Z,1.98
2022-07-30T10:03:43.010Z,1.50
2022-07-30T10:06:38.138Z,1.75
2022-07-30T10:09:37.380Z,1.15
2022-07-30T10:12:10.527Z,1.40
2022-07-30T10:14:44.938Z,1.20
2022-07-30T10:17:15.104Z,1.40
2022-07-30T10:19:52.984Z,1.33
2022-07-30T10:22:56.658Z,1.67
2022-07-30T10:25:27.987Z,1.60
2022-07-30T10:28:38.439Z,1.40
2022-07-30T10:31:47.396Z,1.50
2022-07-30T10:33:52.957Z,1.33
2022-07-30T10:36:21.784Z,0.98
2022-07-30T10:38:52.908Z,1.35
2022-07-30T10:42:02.361Z,1.55
2022-07-30T10:44:51.702Z,1.50
2022-07-30T10:47:19.295Z,1.38
2022-07-30T10:50:22.328Z,1.48
2022-07-30T10:52:54.759Z,1.40
2022-07-30T10:55:37.332Z,1.35
2022-07-30T10:58:14.320Z,1.70
2022-07-30T11:00:54.456Z,1.17
2022-07-30T11:03:23.579Z,1.77
2022-07-30T11:06:16.318Z,1.30
2022-07-30T11:08:45.288Z,1.17
2022-07-30T11:11:20.884Z,1.20
2022-07-30T11:14:07.660Z,1.60
2022-07-30T11:16:34.789Z,1.45
2022-07-30T11:22:25.370Z,1.52
2022-07-30T11:24:52.839Z,1.50
2022-07-30T11:27:50.286Z,1.70
2022-07-30T11:30:23.606Z,1.33
2022-07-30T11:33:03.140Z,1.23
2022-07-30T11:35:34.906Z,1.10
2022-07-30T11:38:07.318Z,1.30
2022-07-30T11:40:42.462Z,1.50
2022-07-30T11:43:34.898Z,1.40
2022-07-30T11:46:16.485Z,1.35
2022-07-30T11:48:55.743Z,1.42
2022-07-30T11:51:22.698Z,1.40
2022-07-30T11:54:02.209Z,1.35
2022-07-30T11:56:28.950Z,1.50
2022-07-30T11:59:03.731Z,1.40
2022-07-30T12:01:30.999Z,1.58
2022-07-30T12:03:57.795Z,1.33
2022-07-30T12:06:24.316Z,1.60
2022-07-30T12:08:58.298Z,1.70
2022-07-30T12:11:32.049Z,1.40
2022-07-30T12:14:01.934Z,1.33
2022-07-30T12:16:31.214Z,1.35
2022-07-30T12:19:05.845Z,1.70
2022-07-30T12:21:33.191Z,1.45
2022-07-30T12:24:04.014Z,1.50
2022-07-30T12:26:34.430Z,1.05
2022-07-30T12:29:05.008Z,1.58
2022-07-30T12:31:33.678Z,1.20
2022-07-30T12:34:00.911Z,1.33
2022-07-30T12:36:32.772Z,1.40
2022-07-30T12:39:01.066Z,1.30
2022-07-30T12:41:48.434Z,1.52
2022-07-30T12:44:40.822Z,1.60
2022-07-30T12:47:26.004Z,1.42
2022-07-30T12:49:54.290Z,1.55
2022-07-30T12:52:28.214Z,1.70
2022-07-30T12:55:10.835Z,1.50
2022-07-30T12:58:00.762Z,1.40
2022-07-30T13:00:43.863Z,1.63
2022-07-30T13:03:40.640Z,1.60
2022-07-30T13:06:14.301Z,1.83
2022-07-30T13:08:55.339Z,1.42
2022-07-30T13:11:24.807Z,1.70
2022-07-30T13:13:52.399Z,1.92
2022-07-30T13:16:20.173Z,1.60
2022-07-30T13:18:47.524Z,1.60
2022-07-30T13:21:14.178Z,1.50
2022-07-30T13:23:41.773Z,1.52
2022-07-30T13:26:09.639Z,1.40
2022-07-30T13:28:36.444Z,1.65
2022-07-30T13:31:03.772Z,2.05
2022-07-30T13:33:30.682Z,1.75
2022-07-30T13:35:57.243Z,1.77
2022-07-30T13:38:23.851Z,1.58
2022-07-30T13:40:51.099Z,1.67
2022-07-30T13:43:18.110Z,1.80
2022-07-30T13:45:44.872Z,1.50
2022-07-30T13:48:11.608Z,1.90
2022-07-30T13:50:38.324Z,1.55
2022-07-30T13:53:05.645Z,1.80
2022-07-30T13:55:32.969Z,2.13
2022-07-30T13:57:59.874Z,1.70
2022-07-30T14:00:32.262Z,2.00
2022-07-30T14:03:00.698Z,2.00
2022-07-30T14:05:27.914Z,1.65
2022-07-30T14:07:54.741Z,2.30
2022-07-30T14:10:22.779Z,2.10
2022-07-30T14:12:55.023Z,2.22
2022-07-30T14:15:22.751Z,2.38
2022-07-30T14:17:56.105Z,2.40
2022-07-30T14:20:23.730Z,2.50
2022-07-30T14:22:50.730Z,1.80
2022-07-30T14:25:17.614Z,1.90
2022-07-30T14:27:44.095Z,2.22
2022-07-30T14:30:15.262Z,2.53
2022-07-30T14:32:41.756Z,2.45
2022-07-30T14:35:09.371Z,2.65
2022-07-30T14:37:38.026Z,2.15
2022-07-30T14:40:13.374Z,2.50
2022-07-30T14:42:40.526Z,2.90
2022-07-30T14:45:09.054Z,2.50
2022-07-30T14:47:36.293Z,2.67
2022-07-30T14:50:03.578Z,2.45
2022-07-30T14:52:30.914Z,2.35
2022-07-30T14:54:57.395Z,2.13
2022-07-30T14:57:24.489Z,2.42
2022-07-30T14:59:50.986Z,2.70
2022-07-30T15:02:17.882Z,2.85
2022-07-30T15:04:44.369Z,2.70
2022-07-30T15:07:13.006Z,2.40
2022-07-30T15:09:39.578Z,2.53
2022-07-30T15:12:09.982Z,2.35
2022-07-30T15:14:40.946Z,2.95
2022-07-30T15:17:07.934Z,3.13
2022-07-30T15:19:34.556Z,3.08
2022-07-30T15:22:02.495Z,2.60
2022-07-30T15:24:29.174Z,2.45
2022-07-30T15:26:56.404Z,2.70
2022-07-30T15:29:24.176Z,3.00
2022-07-30T15:31:51.401Z,2.70
2022-07-30T15:34:17.987Z,2.65
2022-07-30T15:36:44.492Z,2.70
2022-07-30T15:39:11.186Z,2.90
2022-07-30T15:41:37.799Z,2.47
2022-07-30T15:44:05.408Z,2.63
2022-07-30T15:46:31.956Z,2.95
2022-07-30T15:48:58.953Z,2.50
2022-07-30T15:51:25.465Z,2.40
2022-07-30T15:53:51.965Z,2.25
2022-07-30T15:56:18.680Z,2.35
2022-07-30T15:58:45.185Z,1.90
2022-07-30T16:01:11.828Z,2.10
2022-07-30T16:03:38.642Z,2.30
2022-07-30T16:06:07.903Z,1.80
2022-07-30T16:08:34.367Z,2.05
2022-07-30T16:11:03.783Z,2.05
2022-07-30T16:13:31.703Z,2.20
2022-07-30T16:15:58.405Z,2.40
2022-07-30T16:18:24.875Z,7.78
2022-07-30T16:20:51.515Z,10.40
2022-07-30T16:23:21.336Z,3.97
2022-07-30T16:25:48.410Z,3.75
2022-07-30T16:28:14.929Z,2.30
2022-07-30T16:30:50.692Z,2.58
2022-07-30T16:33:19.189Z,2.30
2022-07-30T16:35:49.323Z,1.65
2022-07-30T16:38:18.605Z,1.73
2022-07-30T16:40:45.516Z,1.70
2022-07-30T16:43:12.371Z,2.30
2022-07-30T16:45:39.477Z,1.83
2022-07-30T16:48:06.595Z,1.70
2022-07-30T16:50:33.271Z,1.77
2022-07-30T16:53:00.444Z,1.77
2022-07-30T16:55:27.153Z,1.73
2022-07-30T16:57:53.689Z,1.67
2022-07-30T17:00:20.210Z,2.00
2022-07-30T17:02:46.710Z,1.92
2022-07-30T17:05:13.925Z,2.35
2022-07-30T17:07:40.684Z,1.85
2022-07-30T17:10:11.048Z,1.70
2022-07-30T17:12:40.739Z,2.05
2022-07-30T17:15:07.919Z,1.83
2022-07-30T17:17:34.528Z,2.38
2022-07-30T17:20:02.950Z,2.15
2022-07-30T17:22:29.953Z,2.70
2022-07-30T17:24:56.449Z,3.17
2022-07-30T17:27:22.941Z,3.78
2022-07-30T17:29:50.378Z,3.25
2022-07-30T17:32:19.071Z,2.80
2022-07-30T17:34:46.180Z,3.13
2022-07-30T17:37:12.650Z,3.33
2022-07-30T17:40:26.912Z,3.58
2022-07-30T17:42:26.331Z,3.85
2022-07-30T17:44:52.866Z,4.13
2022-07-30T17:47:19.370Z,3.83
2022-07-30T17:49:46.260Z,4.00
2022-07-30T17:52:13.050Z,3.92
2022-07-30T17:54:39.792Z,4.07
2022-07-30T17:57:06.377Z,3.83
2022-07-30T17:59:32.947Z,3.72
2022-07-30T18:01:59.938Z,3.97
2022-07-30T18:04:27.337Z,4.15
2022-07-30T18:06:53.915Z,4.13
2022-07-30T18:09:20.462Z,3.95
2022-07-30T18:11:47.009Z,3.95
2022-07-30T18:14:13.541Z,4.25
2022-07-30T18:16:40.193Z,3.85
2022-07-30T18:19:06.795Z,4.18
2022-07-30T18:21:35.155Z,3.60
2022-07-30T18:24:05.456Z,4.25
2022-07-30T18:26:36.591Z,4.07
2022-07-30T18:29:03.597Z,4.00
2022-07-30T18:31:30.084Z,3.75
2022-07-30T18:33:56.691Z,3.90
2022-07-30T18:36:23.354Z,3.38
2022-07-30T18:38:49.886Z,3.97
2022-07-30T18:41:18.751Z,3.90
2022-07-30T18:43:48.312Z,4.10
2022-07-30T18:46:15.576Z,4.35
2022-07-30T18:48:42.264Z,4.30
2022-07-30T18:51:13.418Z,4.03
2022-07-30T18:53:41.501Z,4.32
2022-07-30T18:56:08.070Z,4.00
2022-07-30T18:58:34.669Z,4.35
2022-07-30T19:01:01.254Z,3.97
2022-07-30T19:03:27.780Z,4.47
2022-07-30T19:05:57.169Z,3.90
2022-07-30T19:08:23.659Z,4.40
2022-07-30T19:10:50.398Z,4.10
2022-07-30T19:13:16.984Z,3.67
2022-07-30T19:15:43.479Z,4.25
2022-07-30T19:18:10.477Z,3.70
2022-07-30T19:20:37.306Z,3.97
2022-07-30T19:23:05.546Z,3.92
2022-07-30T19:25:34.371Z,3.92
2022-07-30T19:28:02.051Z,4.20
2022-07-30T19:30:29.596Z,4.13
2022-07-30T19:33:02.970Z,3.78
2022-07-30T19:35:29.828Z,4.00
2022-07-30T19:37:56.364Z,4.50
2022-07-30T19:40:22.944Z,4.60
2022-07-30T19:42:55.713Z,4.30
2022-07-30T19:45:22.649Z,4.82
2022-07-30T19:47:49.147Z,4.43
2022-07-30T19:50:15.875Z,4.13
2022-07-30T19:52:51.259Z,4.68
2022-07-30T19:55:35.051Z,4.20
2022-07-30T19:58:15.884Z,4.68
2022-07-30T20:00:49.392Z,4.63
2022-07-30T20:03:25.343Z,4.03
2022-07-30T20:05:54.991Z,4.50
2022-07-30T20:08:25.548Z,4.47
2022-07-30T20:10:52.493Z,4.68
2022-07-30T20:13:19.076Z,4.85
2022-07-30T20:15:46.418Z,4.80
2022-07-30T20:18:13.051Z,5.05
2022-07-30T20:20:41.270Z,4.60
2022-07-30T20:23:08.252Z,4.30
2022-07-30T20:25:37.070Z,4.35
2022-07-30T20:28:05.268Z,4.07
2022-07-30T20:30:32.630Z,3.85
2022-07-30T20:32:59.326Z,4.38
2022-07-30T20:35:29.265Z,4.80
2022-07-30T20:37:56.739Z,4.25
2022-07-30T20:40:26.731Z,5.10
2022-07-30T20:42:54.341Z,4.15
2022-07-30T20:45:21.297Z,4.07
2022-07-30T20:47:52.771Z,4.80
2022-07-30T20:50:19.332Z,4.68
2022-07-30T20:52:57.637Z,4.22
2022-07-30T20:55:24.150Z,4.35
2022-07-30T20:57:59.290Z,4.63
2022-07-30T21:00:36.660Z,5.50
2022-07-30T21:03:05.376Z,5.55
2022-07-30T21:05:31.879Z,5.60
2022-07-30T21:07:58.711Z,4.95
2022-07-30T21:10:25.557Z,5.72
2022-07-30T21:12:53.297Z,5.82
2022-07-30T21:15:25.426Z,5.65
2022-07-30T21:17:53.400Z,5.63
2022-07-30T21:20:27.464Z,6.78
2022-07-30T21:22:55.244Z,6.85
2022-07-30T21:25:23.590Z,7.35
2022-07-30T21:28:00.618Z,6.35
2022-07-30T21:30:29.708Z,6.55
2022-07-30T21:32:56.518Z,6.38
2022-07-30T21:35:23.060Z,6.20
2022-07-30T21:37:49.602Z,6.63
2022-07-30T21:40:16.210Z,6.88
2022-07-30T21:42:48.761Z,6.60
2022-07-30T21:45:15.680Z,5.82
2022-07-30T21:47:47.993Z,5.80
2022-07-30T21:50:16.066Z,5.70
2022-07-30T21:52:43.245Z,5.95
2022-07-30T21:55:13.560Z,5.72
2022-07-30T21:57:40.693Z,5.95
2022-07-30T22:00:21.773Z,5.95
2022-07-30T22:02:52.893Z,5.70
2022-07-30T22:05:21.705Z,5.80
2022-07-30T22:07:50.160Z,5.80
2022-07-30T22:10:21.495Z,6.07
2022-07-30T22:12:48.550Z,6.03
2022-07-30T22:15:15.340Z,5.63
2022-07-30T22:17:58.671Z,6.03
2022-07-30T22:20:30.549Z,6.35
2022-07-30T22:22:58.880Z,5.75
2022-07-30T22:25:43.695Z,6.03
2022-07-30T22:28:10.753Z,5.93
2022-07-30T22:30:38.037Z,5.55
2022-07-30T22:33:16.069Z,6.07
2022-07-30T22:35:46.596Z,5.68
2022-07-30T22:38:13.965Z,5.93
2022-07-30T22:40:41.952Z,5.82
2022-07-30T22:43:12.474Z,6.65
2022-07-30T22:45:47.688Z,6.25
2022-07-30T22:48:19.117Z,5.95
2022-07-30T22:50:52.868Z,5.93
2022-07-30T22:54:11.774Z,6.07
2022-07-30T22:56:07.209Z,6.03
2022-07-30T22:58:40.844Z,5.75
2022-07-30T23:01:09.285Z,6.13
2022-07-30T23:03:37.642Z,5.90
2022-07-30T23:06:04.143Z,6.45
2022-07-30T23:08:33.072Z,6.10
2022-07-30T23:11:00.026Z,6.47
2022-07-30T23:13:27.785Z,6.38
2022-07-30T23:15:54.471Z,5.78
2022-07-30T23:18:20.994Z,6.70
2022-07-30T23:20:47.508Z,6.30
2022-07-30T23:23:14.107Z,7.10
2022-07-30T23:25:40.639Z,6.95
2022-07-30T23:28:07.131Z,6.45
2022-07-30T23:30:34.486Z,6.60
2022-07-30T23:33:01.585Z,7.25
2022-07-30T23:35:28.116Z,7.00
2022-07-30T23:37:54.670Z,7.18
2022-07-30T23:40:21.162Z,6.70
2022-07-30T23:42:49.990Z,7.45
2022-07-30T23:45:17.408Z,7.25
2022-07-30T23:48:02.139Z,7.03
2022-07-30T23:50:32.912Z,6.75
2022-07-30T23:53:00.546Z,7.13
2022-07-30T23:55:27.390Z,6.28
2022-07-30T23:57:54.373Z,6.78
